Details From SBGR - Sao Paulo - Guarulhos
To SBCF - Tancredo Neves
Flight Number -
Tags decoded
Created
Modified
Stats Distance 267 nm / 495 km
Max Altitude 0 ft / 0 m
Waypoints 2
Social Downloads 4
Likes 0
Share VATSIM

Download

Looking for another format? Having issues loading an existing format? Contact us
Advertisement - Login to hide

Notes

Requested: SBGR UBRIR UZ23 OPKES SBCF Unmatched points: UBRIR UZ23 OPKES

Route

SBGR SBCF

ID Type Via Altitude Latitude Longitude Leg Dist Tot Dist Heading (true) Name
O SBGR APT - 0 ft / 0 m -23.43233˚ -46.46968˚ - 0 nm - Sao Paulo - Guarulhos
O SBCF APT - 0 ft / 0 m -19.63376˚ -43.96885˚ 267 nm 267 nm 32° / 31° Tancredo Neves

Altitude Profile

Advertisement - Login to hide

Weather


0- 5 10 15 20 25 30 35+ Temperature / ° C

Clouds and Precipitation
Forecast for 2018-01-18 18:00 UTC. Updated 8 minutes ago

Ground ~20,000 ft ~40,000 ft Winds

SBGR

Details ICAO SBGR (GRU)
Name Sao Paulo - Guarulhos
Region Brazil
Timezone America/Sao_Paulo (UTC-2.0)
Stats Elevation 2,459 ft / 750 m (AMSL)
Location -23.432333° -46.469675°
Runways 2
Magnetic Variation 21.425° W

METAR

SBGR 181700Z 32013G23KT 9999 SCT045 32/20 Q1016

Decode

TAF

TAF SBGR 180800Z 1812/1918 35006KT 8000 NSCTX32/1817Z TN20/1908Z BECMG 1813/1815 34010KT 9999 SCT040 TEMPO 1818/1822 8000 TSRA SCT040 FEW045CB BECMG 1822/1824 00000KT 8000 NSC BECMG 1913/1915 34005KT 9999 SCT040 TEMPO 1917/1918 8000 TSRA SCT040 FEW045CB RMK PGH

Decode

Departure Runways

ID Width Length Bearing (true) Bearing (mag) Surface Threshold Offset Overrun Length
09L 148 ft / 45 m 12,676 ft / 3,864 m 73.61° 95.03° Asphalt 495 ft / 151 m 0 ft / 0 m
09R 148 ft / 45 m 9,950 ft / 3,033 m 73.60° 95.02° Asphalt 0 ft / 0 m 197 ft / 60 m
27L 148 ft / 45 m 9,950 ft / 3,033 m 253.59° 275.01° Asphalt 0 ft / 0 m 197 ft / 60 m
27R 148 ft / 45 m 12,676 ft / 3,864 m 253.60° 275.02° Asphalt 197 ft / 60 m 0 ft / 0 m

SBCF

Details ICAO SBCF (CNF)
Name Tancredo Neves
Region Brazil
Timezone America/Sao_Paulo (UTC-2.0)
Stats Elevation 2,715 ft / 828 m (AMSL)
Location -19.633758° -43.968854°
Runways 1
Magnetic Variation 22.813° W

METAR

SBCF 181700Z 02007KT 9999 SCT040 29/11 Q1019

Decode

TAF

TAF SBCF 181000Z 1812/1912 06007KT 9999 BKN040 TX29/1817Z TN18/1808Z BECMG 1817/1819 09007KT BECMG 1901/1903 06005KT CAVOK RMK PDB

Decode

Destination Runways

ID Width Length Bearing (true) Bearing (mag) Surface Threshold Offset Overrun Length
16 148 ft / 45 m 9,872 ft / 3,009 m 138.97° 161.78° Asphalt 0 ft / 0 m 203 ft / 62 m
34 148 ft / 45 m 9,872 ft / 3,009 m 318.96° 341.77° Asphalt 0 ft / 0 m 203 ft / 62 m

Approach Navaids

Runway Type Ident Frequency Range Bearing (true) Bearing (mag) Slope Elevation
16 Localiser ICF 109.70 MHz 18 nm / 33 km 138.90° 161.72° - 2,716 ft / 828 m (AMSL)
16 Glidescope ICF 109.70 MHz 10 nm / 19 km 138.96° 161.77° 3.00° 2,716 ft / 828 m (AMSL)

Popular Alternatives